Have a Safe July 4th! 

Flight Track Log - Related Links

Times and Time Zones

All times are in EDT time to prevent confusion due to time zone crossing. See the SKW6432 flight status page for this flight to view local times or setup timezone preferences in your user account.

Time Position Orientation Groundspeed Altitude Reporting Facility
EDT Latitude Longitude Course Direction KTS MPH feet Rate Location/Type
Sun 07:22:51 PM 37.6333 -122.3667 180° South 168 193 1,300  Level Northern Cal TRACON
Sun 07:23:51 PM 37.6833 -122.3833 345° North 208 239 3,100 2,000 Climbing Northern Cal TRACON
Sun 07:24:51 PM 37.7167 -122.4500 302° West 240 276 5,300 2,000 Climbing Northern Cal TRACON
Sun 07:25:45 PM 37.7000 -122.5167 252° West 265 305 6,900 2,100 Climbing Northern Cal TRACON
Sun 07:26:00 PM 37.3129 -122.5204 185° South  Level FlightAware Approximate
Sun 07:26:51 PM 37.6167 -122.5667 205° Southwest 289 333 9,500  Level Northern Cal TRACON
Sun 07:27:00 PM 37.2033 -122.5313 185° South  Level FlightAware Approximate
Sun 07:27:26 PM 37.5711 -122.5639 177° South 278 320 10,300  Level Oakland Center
Sun 07:28:00 PM 37.0943 -122.5500 180° South  Level FlightAware Approximate
Sun 07:28:27 PM 37.4828 -122.5664 181° South 307 353 11,700  Level Oakland Center
Sun 07:29:29 PM 37.3881 -122.5681 181° South 332 382 13,500 1,805 Climbing Oakland Center
Sun 07:30:30 PM 37.2897 -122.5692 181° South 344 396 15,400 1,869 Climbing Oakland Center
Sun 07:31:31 PM 37.1903 -122.5706 181° South 354 407 17,300 1,869 Climbing Oakland Center
Sun 07:32:32 PM 37.0908 -122.5714 180° South 358 412 19,200 1,854 Climbing Oakland Center
Sun 07:33:34 PM 36.9689 -122.5739 181° South 365 420 21,100 1,707 Climbing Oakland Center
Sun 07:34:35 PM 36.8669 -122.5500 169° South 375 432 22,700 1,377 Climbing Oakland Center
Sun 07:35:36 PM 36.7633 -122.5228 168° South 381 438 23,900 1,082 Climbing Oakland Center
Sun 07:36:37 PM 36.6564 -122.4953 168° South 393 452 24,900 1,073 Climbing Oakland Center
Sun 07:37:39 PM 36.5472 -122.4633 167° South 401 461 26,100 1,122 Climbing Oakland Center
Sun 07:38:40 PM 36.4656 -122.3594 134° Southeast 414 476 27,200 984 Climbing Oakland Center
Sun 07:39:41 PM 36.3842 -122.2553 134° Southeast 420 483 28,100 1,073 Climbing Oakland Center
Sun 07:40:43 PM 36.3036 -122.1481 133° Southeast 425 489 29,400 1,220 Climbing Oakland Center
Sun 07:41:44 PM 36.2233 -122.0436 134° Southeast 421 484 30,600 1,328 Climbing Oakland Center
Sun 07:42:45 PM 36.1264 -121.9164 133° Southeast 422 486 32,100 1,328 Climbing Oakland Center
Sun 07:43:46 PM 36.0467 -121.8136 134° Southeast 416 479 33,300 1,279 Climbing Oakland Center
Sun 07:44:47 PM 35.9708 -121.7139 133° Southeast 416 479 34,700 829 Climbing Oakland Center
Sun 07:45:49 PM 35.8931 -121.6117 133° Southeast 410 472 35,000 146 Climbing Oakland Center
Sun 07:46:50 PM 35.8092 -121.5078 135° Southeast 422 486 35,000  Level Oakland Center
Sun 07:47:51 PM 35.7272 -121.4019 134° Southeast 426 490 35,000  Level Oakland Center
Sun 07:48:52 PM 35.6450 -121.2972 134° Southeast 427 491 35,000  Level Oakland Center
Sun 07:49:53 PM 35.5628 -121.1917 134° Southeast 428 493 35,000  Level Oakland Center
Sun 07:50:55 PM 35.4611 -121.0697 136° Southeast 428 493 35,000  Level Oakland Center
Sun 07:51:56 PM 35.3594 -120.9950 149° Southeast 425 489 35,000  Level Oakland Center
Sun 07:52:57 PM 35.2578 -120.9164 148° Southeast 431 496 35,000  Level Oakland Center
Sun 07:53:58 PM 35.1514 -120.8328 147° Southeast 432 497 35,000  Level Oakland Center
Sun 07:55:00 PM 35.0558 -120.7586 148° Southeast 435 501 35,000  Level Oakland Center
Sun 07:56:01 PM 34.9453 -120.6719 147° Southeast 438 504 35,000  Level Oakland Center
Sun 07:57:02 PM 34.8433 -120.5925 147° Southeast 436 502 35,000  Level Oakland Center
Sun 07:58:03 PM 34.7386 -120.5108 147° Southeast 439 505 35,000  Level Oakland Center
Sun 07:59:04 PM 34.6256 -120.4233 148° Southeast 443 510 35,000  Level Oakland Center
Sun 08:00:04 PM 34.5214 -120.3428 147° Southeast 445 512 35,000  Level Oakland Center
Sun 08:01:47 PM 34.3558 -120.2161 148° Southeast 444 511 35,000 -36 Level Los Angeles Center
Sun 08:02:49 PM 34.2547 -120.1328 146° Southeast 438 504 34,900 -968 Descending Los Angeles Center
Sun 08:03:51 PM 34.1739 -119.9814 123° Southeast 450 518 33,000 -1,790 Descending Los Angeles Center
Sun 08:04:53 PM 34.1100 -119.8572 122° Southeast 441 507 31,200 -1,984 Descending Los Angeles Center
Sun 08:05:55 PM 34.0458 -119.7306 121° Southeast 441 507 28,900 -2,371 Descending Los Angeles Center
Sun 08:06:57 PM 33.9822 -119.6047 121° Southeast 442 509 26,300 -2,516 Descending Los Angeles Center
Sun 08:07:59 PM 33.9186 -119.4803 122° Southeast 439 505 23,700 -2,516 Descending Los Angeles Center
Sun 08:09:01 PM 33.8583 -119.3547 120° Southeast 435 501 21,100 -2,855 Descending Los Angeles Center
Sun 08:10:03 PM 33.7858 -119.2156 122° Southeast 412 474 17,800 -2,855 Descending Los Angeles Center
Sun 08:11:05 PM 33.7275 -119.1008 121° Southeast 407 468 15,200 -2,516 Descending Los Angeles Center
Sun 08:12:07 PM 33.6700 -118.9886 122° Southeast 397 457 12,600 -1,809 Descending Los Angeles Center
Sun 08:13:21 PM 33.6133 -118.8797 122° Southeast 389 448 11,100 -1,014 Descending Los Angeles Center
Sun 08:14:35 PM 33.5808 -118.7531 107° East 323 372 10,100 -1,226 Descending Los Angeles Center
Sun 08:15:38 PM 33.5594 -118.6203 101° East 293 337 8,300 -1,344 Descending Los Angeles Center
Sun 08:16:40 PM 33.5483 -118.5244 98° East 294 338 7,300 -968 Descending Los Angeles Center
Sun 08:17:42 PM 33.5664 -118.4303 77° East 296 341 6,300 -968 Descending Los Angeles Center
Sun 08:18:44 PM 33.5836 -118.3428 77° East 284 327 5,300 -581 Descending Los Angeles Center
Sun 08:19:46 PM 33.5997 -118.2508 78° East 254 292 5,100 -97 Descending Los Angeles Center
Sun 08:20:48 PM 33.6139 -118.1775 77° East 237 273 5,100  Level Los Angeles Center
Sun 08:21:50 PM 33.6281 -118.1017 77° East 234 269 5,100  Level Los Angeles Center
Sun 08:22:52 PM 33.6603 -118.0342 60° Northeast 241 277 5,100  Level Los Angeles Center
Sun 08:23:54 PM 33.7000 -117.9714 53° Northeast 239 275 5,100  Level Los Angeles Center
Sun 08:24:56 PM 33.7472 -117.8942 54° Northeast 240 276 5,100 -242 Level Los Angeles Center
Sun 08:25:58 PM 33.7922 -117.8447 42° Northeast 228 262 4,600 -1,065 Descending Los Angeles Center
Sun 08:27:00 PM 33.7842 -117.8008 102° East 212 244 2,900 -1,355 Descending Los Angeles Center
Sun 08:28:02 PM 33.7478 -117.8222 206° Southwest 168 193 1,800 -919 Descending Los Angeles Center
Sun 08:29:04 PM 33.7147 -117.8433 208° Southwest 146 168 1,000 -774 Descending Los Angeles Center

Login

Don't have an account? Register now (free) for customized features, flight alerts, and more!